Terminal Aerodrome Forecast
Issued by NWS Los Angeles, CA

Home | Current Version | Previous Version | Text Only | Print | Product List | Glossary On
Versions: 1 2 3 4 5 6 7 8 9 10 11 12 13 14 15 16 17 18 19 20 21 22 23
512
FTUS46 KLOX 230533
TAFSMX
TAF
KSMX 230533Z 2306/2406 31006KT P6SM SKC
     FM230800 VRB03KT 6SM BR BKN002
     FM231600 32005KT P6SM SKC
     FM232000 31012KT P6SM SKC
     FM240500 VRB05KT P6SM SKC=

USA.gov is the U.S. government's official web portal to all federal, state and local government web resources and services.